sensor_id;sensor_type;location;lat;lon;timestamp;temperature;humidity
36186;DHT22;22228;53.222;7.446;2024-01-06T00:02:23;1.30;99.90
36186;DHT22;22228;53.222;7.446;2024-01-06T00:05:44;1.30;99.90
36186;DHT22;22228;53.222;7.446;2024-01-06T00:09:05;1.30;99.90
36186;DHT22;22228;53.222;7.446;2024-01-06T00:12:27;1.30;99.90
36186;DHT22;22228;53.222;7.446;2024-01-06T00:15:48;1.30;99.90
36186;DHT22;22228;53.222;7.446;2024-01-06T00:19:08;1.30;99.90
36186;DHT22;22228;53.222;7.446;2024-01-06T00:22:29;1.20;99.90
36186;DHT22;22228;53.222;7.446;2024-01-06T00:25:49;1.30;99.90
36186;DHT22;22228;53.222;7.446;2024-01-06T00:29:11;1.30;99.90
36186;DHT22;22228;53.222;7.446;2024-01-06T00:32:32;1.20;99.90
36186;DHT22;22228;53.222;7.446;2024-01-06T00:35:52;1.30;99.90
36186;DHT22;22228;53.222;7.446;2024-01-06T00:39:14;1.30;99.90
36186;DHT22;22228;53.222;7.446;2024-01-06T00:42:34;1.20;99.90
36186;DHT22;22228;53.222;7.446;2024-01-06T00:45:56;1.20;99.90
36186;DHT22;22228;53.222;7.446;2024-01-06T00:49:17;1.20;99.90
36186;DHT22;22228;53.222;7.446;2024-01-06T00:52:37;1.20;99.90
36186;DHT22;22228;53.222;7.446;2024-01-06T00:55:58;1.20;99.90
36186;DHT22;22228;53.222;7.446;2024-01-06T00:59:18;1.20;99.90
36186;DHT22;22228;53.222;7.446;2024-01-06T01:02:40;1.20;99.90
36186;DHT22;22228;53.222;7.446;2024-01-06T01:06:01;1.20;99.90
36186;DHT22;22228;53.222;7.446;2024-01-06T01:09:21;1.20;99.90
36186;DHT22;22228;53.222;7.446;2024-01-06T01:12:42;1.20;99.90
36186;DHT22;22228;53.222;7.446;2024-01-06T04:00:49;0.60;99.90
36186;DHT22;22228;53.222;7.446;2024-01-06T04:04:10;0.50;99.90
36186;DHT22;22228;53.222;7.446;2024-01-06T04:07:30;0.50;99.90
36186;DHT22;22228;53.222;7.446;2024-01-06T04:10:51;0.50;99.90
36186;DHT22;22228;53.222;7.446;2024-01-06T04:14:11;0.50;99.90
36186;DHT22;22228;53.222;7.446;2024-01-06T04:17:33;0.50;99.90
36186;DHT22;22228;53.222;7.446;2024-01-06T04:20:54;0.50;99.90
36186;DHT22;22228;53.222;7.446;2024-01-06T04:24:14;0.50;99.90
36186;DHT22;22228;53.222;7.446;2024-01-06T04:27:35;0.60;99.90
36186;DHT22;22228;53.222;7.446;2024-01-06T04:30:55;0.60;99.90
36186;DHT22;22228;53.222;7.446;2024-01-06T04:34:17;0.50;99.90
36186;DHT22;22228;53.222;7.446;2024-01-06T04:37:37;0.50;99.90
36186;DHT22;22228;53.222;7.446;2024-01-06T04:40:58;0.50;99.90
36186;DHT22;22228;53.222;7.446;2024-01-06T04:44:20;0.50;99.90
36186;DHT22;22228;53.222;7.446;2024-01-06T04:47:41;0.50;99.90
36186;DHT22;22228;53.222;7.446;2024-01-06T04:51:03;0.50;99.90
36186;DHT22;22228;53.222;7.446;2024-01-06T04:54:23;0.40;99.90
36186;DHT22;22228;53.222;7.446;2024-01-06T04:57:44;0.40;99.90
36186;DHT22;22228;53.222;7.446;2024-01-06T05:01:04;0.40;99.90
36186;DHT22;22228;53.222;7.446;2024-01-06T05:04:25;0.40;99.90
36186;DHT22;22228;53.222;7.446;2024-01-06T05:07:47;0.40;99.90
36186;DHT22;22228;53.222;7.446;2024-01-06T05:11:07;0.40;99.90
36186;DHT22;22228;53.222;7.446;2024-01-06T05:14:28;0.40;99.90
36186;DHT22;22228;53.222;7.446;2024-01-06T05:17:48;0.40;99.90
36186;DHT22;22228;53.222;7.446;2024-01-06T05:21:09;0.40;99.90
36186;DHT22;22228;53.222;7.446;2024-01-06T05:24:31;0.40;99.90
36186;DHT22;22228;53.222;7.446;2024-01-06T05:27:51;0.40;99.90
36186;DHT22;22228;53.222;7.446;2024-01-06T05:31:12;0.40;99.90
36186;DHT22;22228;53.222;7.446;2024-01-06T05:34:32;0.40;99.90
36186;DHT22;22228;53.222;7.446;2024-01-06T05:37:53;0.40;99.90
36186;DHT22;22228;53.222;7.446;2024-01-06T05:41:14;0.40;99.90
36186;DHT22;22228;53.222;7.446;2024-01-06T05:44:35;0.40;99.90
36186;DHT22;22228;53.222;7.446;2024-01-06T05:47:56;0.40;99.90
36186;DHT22;22228;53.222;7.446;2024-01-06T05:51:17;0.40;99.90
36186;DHT22;22228;53.222;7.446;2024-01-06T05:54:40;0.40;99.90
36186;DHT22;22228;53.222;7.446;2024-01-06T05:58:03;0.40;99.90
36186;DHT22;22228;53.222;7.446;2024-01-06T06:01:23;0.40;99.90
36186;DHT22;22228;53.222;7.446;2024-01-06T06:04:43;0.40;99.90
36186;DHT22;22228;53.222;7.446;2024-01-06T06:08:04;0.40;99.90
36186;DHT22;22228;53.222;7.446;2024-01-06T06:11:24;0.40;99.90
36186;DHT22;22228;53.222;7.446;2024-01-06T06:14:46;0.40;99.90
36186;DHT22;22228;53.222;7.446;2024-01-06T06:18:07;0.40;99.90
36186;DHT22;22228;53.222;7.446;2024-01-06T06:21:28;0.40;99.90
36186;DHT22;22228;53.222;7.446;2024-01-06T06:24:48;0.40;99.90
36186;DHT22;22228;53.222;7.446;2024-01-06T06:28:09;0.40;99.90
36186;DHT22;22228;53.222;7.446;2024-01-06T06:31:30;0.40;99.90
36186;DHT22;22228;53.222;7.446;2024-01-06T06:34:51;0.40;99.90
36186;DHT22;22228;53.222;7.446;2024-01-06T06:38:11;0.40;99.90
36186;DHT22;22228;53.222;7.446;2024-01-06T06:41:32;0.40;99.90
36186;DHT22;22228;53.222;7.446;2024-01-06T06:44:52;0.50;99.90
36186;DHT22;22228;53.222;7.446;2024-01-06T06:48:14;0.50;99.90
36186;DHT22;22228;53.222;7.446;2024-01-06T06:51:34;0.40;99.90
36186;DHT22;22228;53.222;7.446;2024-01-06T06:54:55;0.50;99.90
36186;DHT22;22228;53.222;7.446;2024-01-06T06:58:15;0.50;99.90
36186;DHT22;22228;53.222;7.446;2024-01-06T07:01:36;0.50;99.90
36186;DHT22;22228;53.222;7.446;2024-01-06T07:04:58;0.50;99.90
36186;DHT22;22228;53.222;7.446;2024-01-06T07:08:18;0.50;99.90
36186;DHT22;22228;53.222;7.446;2024-01-06T07:11:39;0.50;99.90
36186;DHT22;22228;53.222;7.446;2024-01-06T07:14:59;0.50;99.90
36186;DHT22;22228;53.222;7.446;2024-01-06T07:18:20;0.50;99.90
36186;DHT22;22228;53.222;7.446;2024-01-06T07:21:43;0.50;99.90
36186;DHT22;22228;53.222;7.446;2024-01-06T07:25:04;0.50;99.90
36186;DHT22;22228;53.222;7.446;2024-01-06T07:28:26;0.50;99.90
36186;DHT22;22228;53.222;7.446;2024-01-06T07:31:48;0.50;99.90
36186;DHT22;22228;53.222;7.446;2024-01-06T07:35:08;0.50;99.90
36186;DHT22;22228;53.222;7.446;2024-01-06T07:38:30;0.50;99.90
36186;DHT22;22228;53.222;7.446;2024-01-06T07:41:51;0.50;99.90
36186;DHT22;22228;53.222;7.446;2024-01-06T07:45:12;0.50;99.90
36186;DHT22;22228;53.222;7.446;2024-01-06T07:48:32;0.50;99.90
36186;DHT22;22228;53.222;7.446;2024-01-06T07:51:53;0.50;99.90
36186;DHT22;22228;53.222;7.446;2024-01-06T07:55:14;0.50;99.90
36186;DHT22;22228;53.222;7.446;2024-01-06T07:58:35;0.50;99.90
36186;DHT22;22228;53.222;7.446;2024-01-06T08:01:55;0.50;99.90
36186;DHT22;22228;53.222;7.446;2024-01-06T08:05:16;0.50;99.90
36186;DHT22;22228;53.222;7.446;2024-01-06T08:08:36;0.50;99.90
36186;DHT22;22228;53.222;7.446;2024-01-06T08:11:58;0.50;99.90
36186;DHT22;22228;53.222;7.446;2024-01-06T08:15:19;0.50;99.90
36186;DHT22;22228;53.222;7.446;2024-01-06T08:18:39;0.50;99.90
36186;DHT22;22228;53.222;7.446;2024-01-06T08:21:59;0.50;99.90
36186;DHT22;22228;53.222;7.446;2024-01-06T08:25:20;0.50;99.90
36186;DHT22;22228;53.222;7.446;2024-01-06T08:28:42;0.50;99.90
36186;DHT22;22228;53.222;7.446;2024-01-06T08:32:03;0.60;99.90
36186;DHT22;22228;53.222;7.446;2024-01-06T08:35:23;0.50;99.90
36186;DHT22;22228;53.222;7.446;2024-01-06T08:38:44;0.50;99.90
36186;DHT22;22228;53.222;7.446;2024-01-06T08:42:05;0.50;99.90
36186;DHT22;22228;53.222;7.446;2024-01-06T08:45:26;0.50;99.90
36186;DHT22;22228;53.222;7.446;2024-01-06T08:48:47;0.50;99.90
36186;DHT22;22228;53.222;7.446;2024-01-06T08:52:08;0.50;99.90
36186;DHT22;22228;53.222;7.446;2024-01-06T08:55:28;0.50;99.90
36186;DHT22;22228;53.222;7.446;2024-01-06T08:58:49;0.50;99.90
36186;DHT22;22228;53.222;7.446;2024-01-06T09:02:10;0.50;99.90
36186;DHT22;22228;53.222;7.446;2024-01-06T09:05:31;0.50;99.90
36186;DHT22;22228;53.222;7.446;2024-01-06T09:08:53;0.60;99.90
36186;DHT22;22228;53.222;7.446;2024-01-06T09:12:13;0.60;99.90
36186;DHT22;22228;53.222;7.446;2024-01-06T09:15:34;0.60;99.90
36186;DHT22;22228;53.222;7.446;2024-01-06T09:18:56;0.60;99.90
36186;DHT22;22228;53.222;7.446;2024-01-06T09:22:16;0.60;99.90
36186;DHT22;22228;53.222;7.446;2024-01-06T09:25:36;0.60;99.90
36186;DHT22;22228;53.222;7.446;2024-01-06T09:28:58;0.60;99.90
36186;DHT22;22228;53.222;7.446;2024-01-06T09:32:19;0.60;99.90
36186;DHT22;22228;53.222;7.446;2024-01-06T09:35:43;0.60;99.90
36186;DHT22;22228;53.222;7.446;2024-01-06T09:39:04;0.60;99.90
36186;DHT22;22228;53.222;7.446;2024-01-06T09:42:25;0.60;99.90
36186;DHT22;22228;53.222;7.446;2024-01-06T09:45:51;0.60;99.90
36186;DHT22;22228;53.222;7.446;2024-01-06T09:49:13;0.60;99.90
36186;DHT22;22228;53.222;7.446;2024-01-06T09:52:38;0.50;99.90
36186;DHT22;22228;53.222;7.446;2024-01-06T09:56:00;0.60;99.90
36186;DHT22;22228;53.222;7.446;2024-01-06T09:59:21;0.60;99.90
36186;DHT22;22228;53.222;7.446;2024-01-06T10:02:42;0.60;99.90
36186;DHT22;22228;53.222;7.446;2024-01-06T10:06:03;0.60;99.90
36186;DHT22;22228;53.222;7.446;2024-01-06T10:09:27;0.70;99.90
36186;DHT22;22228;53.222;7.446;2024-01-06T10:12:48;0.70;99.90
36186;DHT22;22228;53.222;7.446;2024-01-06T10:16:12;0.70;99.90
36186;DHT22;22228;53.222;7.446;2024-01-06T10:19:32;0.70;99.90
36186;DHT22;22228;53.222;7.446;2024-01-06T10:22:53;0.80;99.90
36186;DHT22;22228;53.222;7.446;2024-01-06T10:26:15;0.80;99.90
36186;DHT22;22228;53.222;7.446;2024-01-06T10:29:36;0.70;99.90
36186;DHT22;22228;53.222;7.446;2024-01-06T10:32:57;0.70;99.90
36186;DHT22;22228;53.222;7.446;2024-01-06T10:36:18;0.80;99.90
36186;DHT22;22228;53.222;7.446;2024-01-06T10:39:38;0.80;99.90
36186;DHT22;22228;53.222;7.446;2024-01-06T10:43:00;0.90;99.90
36186;DHT22;22228;53.222;7.446;2024-01-06T10:46:21;0.90;99.90
36186;DHT22;22228;53.222;7.446;2024-01-06T10:49:43;0.90;99.90
36186;DHT22;22228;53.222;7.446;2024-01-06T10:53:04;0.80;99.90
36186;DHT22;22228;53.222;7.446;2024-01-06T10:56:25;0.80;99.90
36186;DHT22;22228;53.222;7.446;2024-01-06T10:59:49;0.80;99.90
36186;DHT22;22228;53.222;7.446;2024-01-06T11:03:10;0.80;99.90
36186;DHT22;22228;53.222;7.446;2024-01-06T11:06:31;0.90;99.90
36186;DHT22;22228;53.222;7.446;2024-01-06T11:09:59;0.90;99.90
36186;DHT22;22228;53.222;7.446;2024-01-06T11:13:23;0.90;99.90
36186;DHT22;22228;53.222;7.446;2024-01-06T11:16:45;0.90;99.90
36186;DHT22;22228;53.222;7.446;2024-01-06T11:20:07;0.90;99.90
36186;DHT22;22228;53.222;7.446;2024-01-06T11:23:28;0.90;99.90
36186;DHT22;22228;53.222;7.446;2024-01-06T11:26:52;0.90;99.90
36186;DHT22;22228;53.222;7.446;2024-01-06T11:30:20;0.90;99.90
36186;DHT22;22228;53.222;7.446;2024-01-06T11:33:45;0.90;99.90
36186;DHT22;22228;53.222;7.446;2024-01-06T11:37:07;0.90;99.90
36186;DHT22;22228;53.222;7.446;2024-01-06T11:40:33;0.90;99.90
36186;DHT22;22228;53.222;7.446;2024-01-06T11:43:54;0.90;99.90
36186;DHT22;22228;53.222;7.446;2024-01-06T11:47:15;0.90;99.90
36186;DHT22;22228;53.222;7.446;2024-01-06T11:50:43;0.80;99.90
36186;DHT22;22228;53.222;7.446;2024-01-06T11:54:04;0.90;99.90
36186;DHT22;22228;53.222;7.446;2024-01-06T11:57:25;0.80;99.90
36186;DHT22;22228;53.222;7.446;2024-01-06T12:00:55;0.80;99.90
36186;DHT22;22228;53.222;7.446;2024-01-06T12:04:15;0.80;99.90
36186;DHT22;22228;53.222;7.446;2024-01-06T12:07:37;0.80;99.90
36186;DHT22;22228;53.222;7.446;2024-01-06T12:11:04;0.70;99.90
36186;DHT22;22228;53.222;7.446;2024-01-06T12:14:25;0.80;99.90
36186;DHT22;22228;53.222;7.446;2024-01-06T12:17:45;0.80;99.90
36186;DHT22;22228;53.222;7.446;2024-01-06T12:21:05;0.80;99.90
36186;DHT22;22228;53.222;7.446;2024-01-06T12:24:28;0.80;99.90
36186;DHT22;22228;53.222;7.446;2024-01-06T12:27:49;0.80;99.90
36186;DHT22;22228;53.222;7.446;2024-01-06T12:31:11;0.80;99.90
36186;DHT22;22228;53.222;7.446;2024-01-06T12:34:32;0.80;99.90
36186;DHT22;22228;53.222;7.446;2024-01-06T12:37:53;0.70;99.90
36186;DHT22;22228;53.222;7.446;2024-01-06T12:41:14;0.70;99.90
36186;DHT22;22228;53.222;7.446;2024-01-06T12:44:35;0.70;99.90
36186;DHT22;22228;53.222;7.446;2024-01-06T12:47:57;0.70;99.90
36186;DHT22;22228;53.222;7.446;2024-01-06T12:51:17;0.70;99.90
36186;DHT22;22228;53.222;7.446;2024-01-06T12:54:39;0.70;99.90
36186;DHT22;22228;53.222;7.446;2024-01-06T12:58:01;0.70;99.90
36186;DHT22;22228;53.222;7.446;2024-01-06T13:01:22;0.70;99.90
36186;DHT22;22228;53.222;7.446;2024-01-06T13:04:43;0.70;99.90
36186;DHT22;22228;53.222;7.446;2024-01-06T13:08:04;0.70;99.90
36186;DHT22;22228;53.222;7.446;2024-01-06T13:11:25;0.70;99.90
36186;DHT22;22228;53.222;7.446;2024-01-06T13:14:48;0.60;99.90
36186;DHT22;22228;53.222;7.446;2024-01-06T13:18:09;0.60;99.90
36186;DHT22;22228;53.222;7.446;2024-01-06T13:21:31;0.60;99.90
36186;DHT22;22228;53.222;7.446;2024-01-06T13:24:51;0.60;99.90
36186;DHT22;22228;53.222;7.446;2024-01-06T13:28:12;0.50;99.90
36186;DHT22;22228;53.222;7.446;2024-01-06T13:31:34;0.50;99.90
36186;DHT22;22228;53.222;7.446;2024-01-06T13:34:56;0.50;99.90
36186;DHT22;22228;53.222;7.446;2024-01-06T13:38:23;0.50;99.90
36186;DHT22;22228;53.222;7.446;2024-01-06T13:41:45;0.50;99.90
36186;DHT22;22228;53.222;7.446;2024-01-06T13:45:06;0.50;99.90
36186;DHT22;22228;53.222;7.446;2024-01-06T13:48:28;0.50;99.90
36186;DHT22;22228;53.222;7.446;2024-01-06T13:51:48;0.50;99.90
36186;DHT22;22228;53.222;7.446;2024-01-06T13:55:09;0.50;99.90
36186;DHT22;22228;53.222;7.446;2024-01-06T13:58:30;0.40;99.90
36186;DHT22;22228;53.222;7.446;2024-01-06T14:01:51;0.40;99.90
36186;DHT22;22228;53.222;7.446;2024-01-06T14:05:12;0.40;99.90
36186;DHT22;22228;53.222;7.446;2024-01-06T14:08:33;0.40;99.90
36186;DHT22;22228;53.222;7.446;2024-01-06T14:11:53;0.40;99.90
36186;DHT22;22228;53.222;7.446;2024-01-06T14:15:14;0.50;99.90
36186;DHT22;22228;53.222;7.446;2024-01-06T14:18:35;0.40;99.90
36186;DHT22;22228;53.222;7.446;2024-01-06T14:21:57;0.40;99.90
36186;DHT22;22228;53.222;7.446;2024-01-06T14:25:18;0.40;99.90
36186;DHT22;22228;53.222;7.446;2024-01-06T14:28:38;0.40;99.90
36186;DHT22;22228;53.222;7.446;2024-01-06T14:31:59;0.40;99.90
36186;DHT22;22228;53.222;7.446;2024-01-06T14:35:19;0.40;99.90
36186;DHT22;22228;53.222;7.446;2024-01-06T14:38:42;0.40;99.90
36186;DHT22;22228;53.222;7.446;2024-01-06T14:42:02;0.40;99.90
36186;DHT22;22228;53.222;7.446;2024-01-06T14:45:23;0.40;99.90
36186;DHT22;22228;53.222;7.446;2024-01-06T14:48:43;0.40;99.90
36186;DHT22;22228;53.222;7.446;2024-01-06T14:52:05;0.40;99.90
36186;DHT22;22228;53.222;7.446;2024-01-06T14:55:27;0.40;99.90
36186;DHT22;22228;53.222;7.446;2024-01-06T14:58:48;0.40;99.90
36186;DHT22;22228;53.222;7.446;2024-01-06T15:02:08;0.40;99.90
36186;DHT22;22228;53.222;7.446;2024-01-06T15:05:29;0.40;99.90
36186;DHT22;22228;53.222;7.446;2024-01-06T15:08:49;0.40;99.90
36186;DHT22;22228;53.222;7.446;2024-01-06T15:12:11;0.40;99.90
36186;DHT22;22228;53.222;7.446;2024-01-06T15:15:32;0.40;99.90
36186;DHT22;22228;53.222;7.446;2024-01-06T15:18:52;0.40;99.90
36186;DHT22;22228;53.222;7.446;2024-01-06T15:22:15;0.30;99.90
36186;DHT22;22228;53.222;7.446;2024-01-06T15:25:35;0.30;99.90
36186;DHT22;22228;53.222;7.446;2024-01-06T15:28:57;0.40;99.90
36186;DHT22;22228;53.222;7.446;2024-01-06T15:32:19;0.40;99.90
36186;DHT22;22228;53.222;7.446;2024-01-06T15:35:40;0.40;99.90
36186;DHT22;22228;53.222;7.446;2024-01-06T15:39:00;0.40;99.90
36186;DHT22;22228;53.222;7.446;2024-01-06T15:42:21;0.50;99.90
36186;DHT22;22228;53.222;7.446;2024-01-06T15:45:43;0.40;99.90
36186;DHT22;22228;53.222;7.446;2024-01-06T15:49:03;0.40;99.90
36186;DHT22;22228;53.222;7.446;2024-01-06T15:52:24;0.40;99.90
36186;DHT22;22228;53.222;7.446;2024-01-06T15:55:44;0.40;99.90
36186;DHT22;22228;53.222;7.446;2024-01-06T15:59:05;0.40;99.90
36186;DHT22;22228;53.222;7.446;2024-01-06T16:02:27;0.30;99.90
36186;DHT22;22228;53.222;7.446;2024-01-06T16:05:48;0.30;99.90
36186;DHT22;22228;53.222;7.446;2024-01-06T16:09:09;0.30;99.90
36186;DHT22;22228;53.222;7.446;2024-01-06T16:12:29;0.20;99.90
36186;DHT22;22228;53.222;7.446;2024-01-06T16:15:51;0.30;99.90
36186;DHT22;22228;53.222;7.446;2024-01-06T16:19:13;0.20;99.90
36186;DHT22;22228;53.222;7.446;2024-01-06T16:22:33;0.20;99.90
36186;DHT22;22228;53.222;7.446;2024-01-06T16:25:54;0.20;99.90
36186;DHT22;22228;53.222;7.446;2024-01-06T16:29:14;0.20;99.90
36186;DHT22;22228;53.222;7.446;2024-01-06T16:32:35;0.20;99.90
36186;DHT22;22228;53.222;7.446;2024-01-06T16:35:57;0.20;99.90
36186;DHT22;22228;53.222;7.446;2024-01-06T16:39:17;0.20;99.90
36186;DHT22;22228;53.222;7.446;2024-01-06T16:42:38;0.20;99.90
36186;DHT22;22228;53.222;7.446;2024-01-06T16:45:58;0.20;99.90
36186;DHT22;22228;53.222;7.446;2024-01-06T16:49:19;0.10;99.90
36186;DHT22;22228;53.222;7.446;2024-01-06T16:52:41;0.10;99.90
36186;DHT22;22228;53.222;7.446;2024-01-06T16:56:02;0.10;99.90
36186;DHT22;22228;53.222;7.446;2024-01-06T16:59:23;0.10;99.90
36186;DHT22;22228;53.222;7.446;2024-01-06T17:02:44;0.20;99.90
36186;DHT22;22228;53.222;7.446;2024-01-06T17:06:04;0.10;99.90
36186;DHT22;22228;53.222;7.446;2024-01-06T17:09:27;0.10;99.90
36186;DHT22;22228;53.222;7.446;2024-01-06T17:12:49;0.10;99.90
36186;DHT22;22228;53.222;7.446;2024-01-06T17:16:09;0.10;99.90
36186;DHT22;22228;53.222;7.446;2024-01-06T17:19:30;0.20;99.90
36186;DHT22;22228;53.222;7.446;2024-01-06T17:22:50;0.10;99.90
36186;DHT22;22228;53.222;7.446;2024-01-06T17:26:12;0.10;99.90
36186;DHT22;22228;53.222;7.446;2024-01-06T17:29:33;0.10;99.90
36186;DHT22;22228;53.222;7.446;2024-01-06T17:32:54;0.10;99.90
36186;DHT22;22228;53.222;7.446;2024-01-06T17:36:14;0.10;99.90
36186;DHT22;22228;53.222;7.446;2024-01-06T17:39:36;0.10;99.90
36186;DHT22;22228;53.222;7.446;2024-01-06T17:42:58;0.10;99.90
36186;DHT22;22228;53.222;7.446;2024-01-06T17:46:18;0.10;99.90
36186;DHT22;22228;53.222;7.446;2024-01-06T17:49:40;0.10;99.90
36186;DHT22;22228;53.222;7.446;2024-01-06T17:53:01;0.10;99.90
36186;DHT22;22228;53.222;7.446;2024-01-06T17:56:21;0.10;99.90
36186;DHT22;22228;53.222;7.446;2024-01-06T17:59:43;0.10;99.90
36186;DHT22;22228;53.222;7.446;2024-01-06T18:03:04;0.10;99.90
36186;DHT22;22228;53.222;7.446;2024-01-06T18:06:25;0.10;99.90
36186;DHT22;22228;53.222;7.446;2024-01-06T18:09:46;0.00;99.90
36186;DHT22;22228;53.222;7.446;2024-01-06T18:13:07;0.00;99.90
36186;DHT22;22228;53.222;7.446;2024-01-06T18:16:29;0.00;99.90
36186;DHT22;22228;53.222;7.446;2024-01-06T18:19:49;0.00;99.90
36186;DHT22;22228;53.222;7.446;2024-01-06T18:23:10;0.00;99.90
36186;DHT22;22228;53.222;7.446;2024-01-06T18:26:31;0.00;99.90
36186;DHT22;22228;53.222;7.446;2024-01-06T18:29:51;0.00;99.90
36186;DHT22;22228;53.222;7.446;2024-01-06T18:33:13;0.00;99.90
36186;DHT22;22228;53.222;7.446;2024-01-06T18:36:35;0.00;99.90
36186;DHT22;22228;53.222;7.446;2024-01-06T18:39:56;0.00;99.90
36186;DHT22;22228;53.222;7.446;2024-01-06T18:43:16;0.00;99.90
36186;DHT22;22228;53.222;7.446;2024-01-06T18:46:37;0.00;99.90
36186;DHT22;22228;53.222;7.446;2024-01-06T18:50:00;0.00;99.90
36186;DHT22;22228;53.222;7.446;2024-01-06T18:53:23;0.00;99.90
36186;DHT22;22228;53.222;7.446;2024-01-06T18:56:43;0.00;99.90
36186;DHT22;22228;53.222;7.446;2024-01-06T19:00:05;0.00;99.90
36186;DHT22;22228;53.222;7.446;2024-01-06T19:03:27;0.00;99.90
36186;DHT22;22228;53.222;7.446;2024-01-06T19:06:48;0.00;99.90
36186;DHT22;22228;53.222;7.446;2024-01-06T19:10:09;0.00;99.90
36186;DHT22;22228;53.222;7.446;2024-01-06T19:13:30;0.00;99.90
36186;DHT22;22228;53.222;7.446;2024-01-06T19:20:22;0.00;99.90
36186;DHT22;22228;53.222;7.446;2024-01-06T19:23:44;0.00;99.90
36186;DHT22;22228;53.222;7.446;2024-01-06T19:27:05;0.00;99.90
36186;DHT22;22228;53.222;7.446;2024-01-06T19:30:25;0.00;99.90
36186;DHT22;22228;53.222;7.446;2024-01-06T19:33:46;0.00;99.90
36186;DHT22;22228;53.222;7.446;2024-01-06T19:37:09;0.00;99.90
36186;DHT22;22228;53.222;7.446;2024-01-06T19:40:30;0.00;99.90
36186;DHT22;22228;53.222;7.446;2024-01-06T19:43:51;0.00;99.90
36186;DHT22;22228;53.222;7.446;2024-01-06T19:47:11;0.00;99.90
36186;DHT22;22228;53.222;7.446;2024-01-06T19:50:31;0.00;99.90
36186;DHT22;22228;53.222;7.446;2024-01-06T19:53:52;-0.10;99.90
36186;DHT22;22228;53.222;7.446;2024-01-06T19:57:14;-0.10;99.90
36186;DHT22;22228;53.222;7.446;2024-01-06T20:00:35;-0.10;99.90
36186;DHT22;22228;53.222;7.446;2024-01-06T20:03:55;-0.10;99.90
36186;DHT22;22228;53.222;7.446;2024-01-06T20:07:16;-0.10;99.90
36186;DHT22;22228;53.222;7.446;2024-01-06T20:10:36;0.00;99.90
36186;DHT22;22228;53.222;7.446;2024-01-06T20:13:58;-0.10;99.90
36186;DHT22;22228;53.222;7.446;2024-01-06T20:17:19;-0.10;99.90
36186;DHT22;22228;53.222;7.446;2024-01-06T20:20:39;-0.10;99.90
36186;DHT22;22228;53.222;7.446;2024-01-06T20:24:00;-0.10;99.90
36186;DHT22;22228;53.222;7.446;2024-01-06T20:27:20;-0.10;99.90
36186;DHT22;22228;53.222;7.446;2024-01-06T20:30:42;-0.10;99.90
36186;DHT22;22228;53.222;7.446;2024-01-06T20:34:03;0.00;99.90
36186;DHT22;22228;53.222;7.446;2024-01-06T20:37:23;-0.10;99.90
36186;DHT22;22228;53.222;7.446;2024-01-06T20:40:44;0.00;99.90
36186;DHT22;22228;53.222;7.446;2024-01-06T20:44:05;-0.10;99.90
36186;DHT22;22228;53.222;7.446;2024-01-06T20:47:27;-0.10;99.90
36186;DHT22;22228;53.222;7.446;2024-01-06T20:50:48;-0.10;99.90
36186;DHT22;22228;53.222;7.446;2024-01-06T20:54:08;-0.10;99.90
36186;DHT22;22228;53.222;7.446;2024-01-06T20:57:28;-0.10;99.90
36186;DHT22;22228;53.222;7.446;2024-01-06T21:00:49;-0.10;99.90
36186;DHT22;22228;53.222;7.446;2024-01-06T21:04:11;-0.10;99.90
36186;DHT22;22228;53.222;7.446;2024-01-06T21:07:32;-0.20;99.90
36186;DHT22;22228;53.222;7.446;2024-01-06T21:10:53;-0.10;99.90
36186;DHT22;22228;53.222;7.446;2024-01-06T21:14:13;-0.10;99.90
36186;DHT22;22228;53.222;7.446;2024-01-06T21:17:34;-0.10;99.90
36186;DHT22;22228;53.222;7.446;2024-01-06T21:20:56;-0.10;99.90
36186;DHT22;22228;53.222;7.446;2024-01-06T21:24:16;-0.10;99.90
36186;DHT22;22228;53.222;7.446;2024-01-06T21:27:36;-0.10;99.90
36186;DHT22;22228;53.222;7.446;2024-01-06T21:30:57;-0.10;99.90
36186;DHT22;22228;53.222;7.446;2024-01-06T21:34:17;-0.10;99.90
36186;DHT22;22228;53.222;7.446;2024-01-06T21:37:39;0.00;99.90
36186;DHT22;22228;53.222;7.446;2024-01-06T21:40:59;-0.10;99.90
36186;DHT22;22228;53.222;7.446;2024-01-06T21:44:20;-0.10;99.90
36186;DHT22;22228;53.222;7.446;2024-01-06T21:47:42;-0.10;99.90
36186;DHT22;22228;53.222;7.446;2024-01-06T21:51:03;-0.10;99.90
36186;DHT22;22228;53.222;7.446;2024-01-06T21:54:25;-0.10;99.90
36186;DHT22;22228;53.222;7.446;2024-01-06T21:57:45;-0.10;99.90
36186;DHT22;22228;53.222;7.446;2024-01-06T22:01:06;-0.10;99.90
36186;DHT22;22228;53.222;7.446;2024-01-06T22:04:27;-0.10;99.90
36186;DHT22;22228;53.222;7.446;2024-01-06T22:07:48;-0.10;99.90
36186;DHT22;22228;53.222;7.446;2024-01-06T22:11:09;-0.10;99.90
36186;DHT22;22228;53.222;7.446;2024-01-06T22:14:30;-0.10;99.90
36186;DHT22;22228;53.222;7.446;2024-01-06T22:17:51;-0.10;99.90
36186;DHT22;22228;53.222;7.446;2024-01-06T22:21:12;-0.10;99.90
36186;DHT22;22228;53.222;7.446;2024-01-06T22:24:32;-0.10;99.90
36186;DHT22;22228;53.222;7.446;2024-01-06T22:27:54;-0.10;99.90
36186;DHT22;22228;53.222;7.446;2024-01-06T22:31:15;-0.10;99.90
36186;DHT22;22228;53.222;7.446;2024-01-06T22:34:35;-0.10;99.90
36186;DHT22;22228;53.222;7.446;2024-01-06T22:37:56;-0.10;99.90
36186;DHT22;22228;53.222;7.446;2024-01-06T22:41:16;0.00;99.90
36186;DHT22;22228;53.222;7.446;2024-01-06T22:44:39;-0.10;99.90
36186;DHT22;22228;53.222;7.446;2024-01-06T22:47:59;-0.10;99.90
36186;DHT22;22228;53.222;7.446;2024-01-06T22:51:20;-0.10;99.90
36186;DHT22;22228;53.222;7.446;2024-01-06T22:54:40;-0.10;99.90
36186;DHT22;22228;53.222;7.446;2024-01-06T22:58:01;-0.10;99.90
36186;DHT22;22228;53.222;7.446;2024-01-06T23:01:23;-0.10;99.90
36186;DHT22;22228;53.222;7.446;2024-01-06T23:04:43;-0.10;99.90
36186;DHT22;22228;53.222;7.446;2024-01-06T23:08:04;-0.10;99.90
36186;DHT22;22228;53.222;7.446;2024-01-06T23:11:25;-0.10;99.90
36186;DHT22;22228;53.222;7.446;2024-01-06T23:14:45;-0.10;99.90
36186;DHT22;22228;53.222;7.446;2024-01-06T23:18:07;-0.10;99.90
36186;DHT22;22228;53.222;7.446;2024-01-06T23:21:27;-0.10;99.90
36186;DHT22;22228;53.222;7.446;2024-01-06T23:24:48;-0.10;99.90
36186;DHT22;22228;53.222;7.446;2024-01-06T23:28:08;-0.10;99.90
36186;DHT22;22228;53.222;7.446;2024-01-06T23:31:29;-0.10;99.90
36186;DHT22;22228;53.222;7.446;2024-01-06T23:34:51;-0.10;99.90
36186;DHT22;22228;53.222;7.446;2024-01-06T23:38:11;-0.10;99.90
36186;DHT22;22228;53.222;7.446;2024-01-06T23:41:32;-0.10;99.90
36186;DHT22;22228;53.222;7.446;2024-01-06T23:44:54;-0.10;99.90
36186;DHT22;22228;53.222;7.446;2024-01-06T23:48:15;-0.10;99.90
36186;DHT22;22228;53.222;7.446;2024-01-06T23:51:36;-0.10;99.90
36186;DHT22;22228;53.222;7.446;2024-01-06T23:54:57;-0.10;99.90
36186;DHT22;22228;53.222;7.446;2024-01-06T23:58:17;-0.10;99.90
